KSPF/SPF METAR and TAF weather

Enter ICAO airport designator
Station Type Date Time Source
KSPF METAR 2019/07/17 12:55 UTC NOAA

KSPF 171255Z AUTO 00000KT 10SM SCT090 18/15 A2992 RMK AO2


Station Type Date Time Source
KSPF Decoded METAR 2019/07/17 12:55 UTC NOAA

Spearfish / Clyde Ice, SD, United States (KSPF) 44-29N 103-47W
Jul 17, 2019 - 08:55 AM EDT / 2019.07.17 1255 UTC
Wind: Calm:0
Visibility: 10 mile(s):0
Sky conditions: partly cloudy
Temperature: 64 F (18 C)
Dew Point: 59 F (15 C)
Relative Humidity: 82%
Pressure (altimeter): 29.92 in. Hg (1013 hPa)
ob: KSPF 171255Z AUTO 00000KT 10SM SCT090 18/15 A2992 RMK AO2
cycle: 13

Station Type Date Time Source
KSPF TAF UTC NOAA

Error!

Example: see airport list